Airfield :
LOGIN :

Register | Disclaimer

   EN    FR    IT 

 










Legend :    VFR   Marginal VFR   IFR   Intensive IFR   Very Intensive IFR
Visi :
Ceiling :
>= 8 km
>= 3000ft
5 to 8 km
1000 to 3000 ft
1500m to 5 km
500 to 1000 ft
800 to 1500m
200 to 500 ft
< 800m
< 200 ft
Symbols :   Thunderstorms  Fog  Heavy snow  Heavy precipitations  Wind > 20 kt
SIGMETs :     Misc.  Thunderstorms  Icing  Turbulence  Mountain Waves  Volcanic Ashes







- Airport Elevation : 312 ft
- IATA code : SAW


LTFJ - Sabiha Gokcen

CURRENT METAR :
  • 271150Z 05016KT 9999 FEW035 31/13 Q1013 NOSIG RMK RWY24 05014KT

EXPIRED METARs :
  • 271120Z 04017KT 010V070 9999 FEW035 31/12 Q1014 NOSIG RMK RWY24 04014KT
  • 271050Z 03017KT 9999 FEW030 31/13 Q1014 NOSIG
  • 271020Z 06015KT 010V090 9999 SCT035 30/14 Q1014 NOSIG RMK RWY24 05014KT 020V090
  • 270950Z 05017KT 010V080 9999 SCT035 31/15 Q1014 NOSIG
  • 270920Z 05015KT 030V090 9999 SCT035 30/17 Q1015 NOSIG RMK RWY24 06013KT 010V080

TAF TAF LTFJ
Valid from the 27 at 12:00 until the 28 at 12:00 UTC


271040Z 2712/2812 04018G28KT 9999 SCT035
BECMG 2712/2716 CAVOK
BECMG 2716/2719 VRB02KT
TEMPO 2801/2803 SCT008
BECMG 2805/2809 03015KT SCT035
No reported NOTAMs for that airfield.



MET'MAP, your aeronautical weather chart ! - Copyright ORBIFLY December 2007 - Disclaimer

ORBIFLY MET'MAP TEAM :

Programming & Development : Alexandra Zaïnal
Concept & Development : Baudouin d'Aumeries
Co-Development & Prog : Marc-Olivier Méhu
Technical & hardware support : Manuel Goepfert

Contact : metmap@orbifly.com




SOURCES & CREDITS :

   NOAA